Time;durP1;ratioP1;P1;durP2;ratioP2;P2;SDS_P1;SDS_P2;PMS_P1;PMS_P2;Temp;Humidity;BMP_temperature;BMP_pressure;BME280_temperature;BME280_humidity;BME280_pressure;Samples;Min_cycle;Max_cycle;Signal;HPM_P1;HPM_P2
2022/08/23 04:17:01;;;;;;;6.90;5.43;;;;;;;;;;10927901;23;20907;-90
2022/08/23 04:22:04;;;;;;;5.32;4.82;;;;;;;;;;10112175;29;20509;-90
2022/08/23 04:27:06;;;;;;;6.90;5.15;;;;;;;;;;10111436;29;20926;-91
2022/08/23 04:32:11;;;;;;;5.80;5.18;;;;;;;;;;10116814;29;20447;-91
2022/08/23 04:37:13;;;;;;;6.45;4.93;;;;;;;;;;10116412;29;20418;-90
2022/08/23 04:42:18;;;;;;;6.00;5.35;;;;;;;;;;10111481;29;20452;-90
2022/08/23 04:47:22;;;;;;;6.25;5.28;;;;;;;;;;10112481;29;20521;-90
2022/08/23 04:52:24;;;;;;;6.07;4.70;;;;;;;;;;10110371;29;20810;-90
2022/08/23 04:57:26;;;;;;;5.18;4.43;;;;;;;;;;10110246;29;20504;-90
2022/08/23 05:02:30;;;;;;;7.10;5.30;;;;;;;;;;10121825;29;20439;-90
2022/08/23 05:07:32;;;;;;;8.87;5.53;;;;;;;;;;10113589;29;20470;-90
2022/08/23 05:12:34;;;;;;;9.43;6.03;;;;;;;;;;10106066;29;20926;-91
2022/08/23 05:17:38;;;;;;;7.35;5.60;;;;;;;;;;10113083;29;20438;-91
2022/08/23 05:22:42;;;;;;;7.25;5.28;;;;;;;;;;10115680;29;20496;-91
2022/08/23 05:27:44;;;;;;;6.50;4.93;;;;;;;;;;10107058;29;20514;-90
2022/08/23 05:32:47;;;;;;;6.50;5.07;;;;;;;;;;10108372;29;20418;-90
2022/08/23 05:37:49;;;;;;;6.50;4.67;;;;;;;;;;10114330;29;20509;-91
2022/08/23 05:42:50;;;;;;;6.40;4.60;;;;;;;;;;10107834;29;20542;-90
2022/08/23 05:47:54;;;;;;;6.00;5.00;;;;;;;;;;10111748;29;20462;-91
2022/08/23 05:52:56;;;;;;;6.32;4.90;;;;;;;;;;10108879;29;20457;-90
2022/08/23 05:57:58;;;;;;;6.13;4.70;;;;;;;;;;10111025;29;20932;-91
2022/08/23 06:03:01;;;;;;;5.27;4.50;;;;;;;;;;10116301;29;20510;-90
2022/08/23 06:08:03;;;;;;;6.20;4.38;;;;;;;;;;10111222;29;20835;-91
2022/08/23 06:13:05;;;;;;;7.15;4.70;;;;;;;;;;10107138;29;20492;-91
2022/08/23 06:18:08;;;;;;;5.95;4.40;;;;;;;;;;10115430;29;20423;-91
2022/08/23 06:23:10;;;;;;;6.38;4.47;;;;;;;;;;10125715;29;20411;-92
2022/08/23 06:28:12;;;;;;;5.53;4.30;;;;;;;;;;10115417;29;20521;-91
2022/08/23 06:33:16;;;;;;;4.77;4.27;;;;;;;;;;10114193;29;20423;-91
2022/08/23 06:38:18;;;;;;;5.80;3.47;;;;;;;;;;10110464;29;20419;-91
2022/08/23 06:43:20;;;;;;;5.70;3.63;;;;;;;;;;10109634;29;20536;-91
2022/08/23 06:48:23;;;;;;;4.00;3.60;;;;;;;;;;10116548;29;20877;-90
2022/08/23 06:53:25;;;;;;;5.68;3.72;;;;;;;;;;10116206;29;20517;-91
2022/08/23 06:58:27;;;;;;;5.30;3.65;;;;;;;;;;10116547;29;20805;-91
2022/08/23 07:03:30;;;;;;;6.90;4.30;;;;;;;;;;10122194;29;21072;-91
2022/08/23 07:08:32;;;;;;;5.45;3.97;;;;;;;;;;10122271;29;20515;-91
2022/08/23 07:13:34;;;;;;;4.68;3.78;;;;;;;;;;10120061;29;20419;-91
2022/08/23 07:18:38;;;;;;;3.88;3.40;;;;;;;;;;10121510;29;20459;-91
2022/08/23 07:23:42;;;;;;;5.38;3.78;;;;;;;;;;10117281;29;20501;-92
2022/08/23 07:28:44;;;;;;;5.57;3.50;;;;;;;;;;10116087;29;20505;-91
2022/08/23 07:33:47;;;;;;;6.82;4.00;;;;;;;;;;10119758;29;20423;-91
2022/08/23 07:38:50;;;;;;;5.43;4.30;;;;;;;;;;10113073;29;20519;-91
2022/08/23 07:43:53;;;;;;;7.13;5.20;;;;;;;;;;10111927;29;20749;-91
2022/08/23 07:48:58;;;;;;;8.23;4.53;;;;;;;;;;10116301;29;20421;-91
2022/08/23 07:54:01;;;;;;;9.00;5.10;;;;;;;;;;10112662;29;20859;-91
2022/08/23 07:59:03;;;;;;;8.93;5.88;;;;;;;;;;10118022;29;20508;-91
2022/08/23 08:04:07;;;;;;;8.95;4.30;;;;;;;;;;10108493;29;20505;-90
2022/08/23 08:09:10;;;;;;;6.70;4.50;;;;;;;;;;10115900;29;20419;-91
2022/08/23 08:14:12;;;;;;;7.23;4.40;;;;;;;;;;10114203;29;20940;-91
2022/08/23 08:19:17;;;;;;;6.05;4.18;;;;;;;;;;10115112;29;20502;-91
2022/08/23 08:24:19;;;;;;;6.53;4.32;;;;;;;;;;10108346;29;20426;-91
2022/08/23 08:29:21;;;;;;;7.25;4.25;;;;;;;;;;10108621;29;21009;-91
2022/08/23 08:34:24;;;;;;;7.35;5.13;;;;;;;;;;10114431;29;20445;-91
2022/08/23 08:39:29;;;;;;;7.28;5.40;;;;;;;;;;10115315;29;20518;-91
2022/08/23 08:44:37;;;;;;;9.10;5.43;;;;;;;;;;10118255;29;20521;-90
2022/08/23 08:49:47;;;;;;;5.47;4.57;;;;;;;;;;10108313;29;20423;-90
2022/08/23 08:54:52;;;;;;;7.18;5.38;;;;;;;;;;10111587;29;20508;-91
2022/08/23 08:59:58;;;;;;;9.33;6.87;;;;;;;;;;10109568;29;20518;-90
2022/08/23 09:05:04;;;;;;;8.25;5.18;;;;;;;;;;10113869;29;20504;-91
2022/08/23 09:10:31;;;;;;;9.57;5.70;;;;;;;;;;10106348;29;20506;-91
2022/08/23 09:15:39;;;;;;;7.20;4.90;;;;;;;;;;10109207;29;20622;-91
2022/08/23 09:20:47;;;;;;;6.93;5.22;;;;;;;;;;10113424;29;20765;-91
2022/08/23 09:25:53;;;;;;;8.02;4.32;;;;;;;;;;10113210;29;20516;-92
2022/08/23 09:30:57;;;;;;;5.10;4.60;;;;;;;;;;10110832;29;20449;-91
2022/08/23 09:36:16;;;;;;;6.40;4.50;;;;;;;;;;10113689;29;20513;-91
2022/08/23 09:41:22;;;;;;;7.30;5.00;;;;;;;;;;10110490;29;20533;-91
2022/08/23 09:46:26;;;;;;;5.00;3.43;;;;;;;;;;10116429;29;20442;-90
2022/08/23 09:51:34;;;;;;;4.15;2.95;;;;;;;;;;10112190;29;20967;-91
2022/08/23 09:56:40;;;;;;;5.47;3.20;;;;;;;;;;10097977;29;20466;-91
2022/08/23 10:01:48;;;;;;;3.60;2.73;;;;;;;;;;10113210;29;20453;-91
2022/08/23 10:06:51;;;;;;;3.42;2.42;;;;;;;;;;10112001;29;20794;-91
2022/08/23 10:11:55;;;;;;;2.33;2.03;;;;;;;;;;10110745;29;20517;-91
2022/08/23 10:17:12;;;;;;;4.57;3.40;;;;;;;;;;10111563;29;20455;-91
2022/08/23 10:22:19;;;;;;;5.97;4.57;;;;;;;;;;10106542;29;20506;-91
2022/08/23 10:33:06;;;;;;;4.30;3.23;;;;;;;;;;10111167;29;20401;-91
2022/08/23 10:38:31;;;;;;;5.07;4.20;;;;;;;;;;10110277;29;20423;-91
2022/08/23 10:43:42;;;;;;;2.85;2.40;;;;;;;;;;10108266;29;20912;-91
2022/08/23 10:48:50;;;;;;;3.10;2.80;;;;;;;;;;10109924;29;20670;-91
2022/08/23 10:53:59;;;;;;;4.07;3.20;;;;;;;;;;10108531;29;20424;-91
2022/08/23 10:59:07;;;;;;;3.63;2.90;;;;;;;;;;10110195;29;20484;-91
2022/08/23 11:04:21;;;;;;;3.33;2.73;;;;;;;;;;10107399;29;20845;-91
2022/08/23 11:09:52;;;;;;;3.43;2.20;;;;;;;;;;10109693;29;20771;-91
2022/08/23 11:15:19;;;;;;;2.07;1.87;;;;;;;;;;10104989;29;20417;-91
2022/08/23 11:20:59;;;;;;;2.05;1.75;;;;;;;;;;10109980;29;20468;-91
2022/08/23 11:26:05;;;;;;;3.07;2.00;;;;;;;;;;10086608;29;20935;-91
2022/08/23 11:31:26;;;;;;;2.80;2.05;;;;;;;;;;10112194;29;20716;-90
2022/08/23 11:36:30;;;;;;;2.38;2.17;;;;;;;;;;10117173;29;20937;-91
2022/08/23 11:41:36;;;;;;;2.85;2.10;;;;;;;;;;10113300;29;20520;-91
2022/08/23 11:46:58;;;;;;;3.20;1.83;;;;;;;;;;10112967;29;20445;-91
2022/08/23 11:52:11;;;;;;;3.53;1.90;;;;;;;;;;10116455;29;20427;-91
2022/08/23 11:57:29;;;;;;;2.28;1.60;;;;;;;;;;10104966;29;20477;-91
2022/08/23 12:03:01;;;;;;;1.90;1.60;;;;;;;;;;10121158;29;20516;-91
2022/08/23 12:08:28;;;;;;;3.03;1.47;;;;;;;;;;10139816;29;20413;-90
2022/08/23 12:13:47;;;;;;;3.65;1.85;;;;;;;;;;10138551;29;20453;-91
2022/08/23 12:18:54;;;;;;;2.87;2.00;;;;;;;;;;10113128;29;20461;-91
2022/08/23 12:23:59;;;;;;;2.60;1.70;;;;;;;;;;10118212;29;20425;-91
2022/08/23 12:29:09;;;;;;;1.80;1.50;;;;;;;;;;10083009;29;20924;-91
2022/08/23 12:34:22;;;;;;;4.25;1.90;;;;;;;;;;10113218;29;20458;-91
2022/08/23 12:39:29;;;;;;;3.55;1.70;;;;;;;;;;10110174;29;20511;-91
2022/08/23 12:44:33;;;;;;;2.80;1.67;;;;;;;;;;10107156;29;20513;-91
2022/08/23 12:49:35;;;;;;;2.77;1.70;;;;;;;;;;10114082;29;20524;-91
2022/08/23 12:54:41;;;;;;;3.05;1.60;;;;;;;;;;10117705;29;20520;-90
2022/08/23 12:59:52;;;;;;;1.83;1.55;;;;;;;;;;10107388;29;20417;-91
2022/08/23 13:04:59;;;;;;;1.80;1.60;;;;;;;;;;10113340;29;20423;-91
2022/08/23 13:10:01;;;;;;;2.07;1.57;;;;;;;;;;10114866;29;20509;-90
2022/08/23 13:15:06;;;;;;;1.63;1.38;;;;;;;;;;10109267;29;20425;-91
2022/08/23 13:20:20;;;;;;;1.48;1.38;;;;;;;;;;10108714;29;22062;-90
2022/08/23 13:25:25;;;;;;;2.40;1.60;;;;;;;;;;10094131;29;20925;-91
2022/08/23 13:30:31;;;;;;;1.70;1.40;;;;;;;;;;10114768;29;20526;-91
2022/08/23 13:35:35;;;;;;;1.93;1.43;;;;;;;;;;10112863;29;20554;-91
2022/08/23 13:40:53;;;;;;;2.47;1.60;;;;;;;;;;10100198;29;20776;-91
2022/08/23 13:45:59;;;;;;;1.90;1.50;;;;;;;;;;10108764;29;20433;-90
2022/08/23 13:51:35;;;;;;;3.73;1.43;;;;;;;;;;10112029;29;20510;-91
2022/08/23 13:56:43;;;;;;;2.58;1.50;;;;;;;;;;10019951;29;20440;-91
2022/08/23 14:01:47;;;;;;;1.38;1.20;;;;;;;;;;10093867;29;20498;-91
2022/08/23 14:06:49;;;;;;;1.90;1.38;;;;;;;;;;10110668;29;20866;-91
2022/08/23 14:11:58;;;;;;;2.13;1.40;;;;;;;;;;10104380;29;20496;-90
2022/08/23 14:17:01;;;;;;;1.80;1.30;;;;;;;;;;10110181;29;20417;-91
2022/08/23 14:22:04;;;;;;;1.92;1.30;;;;;;;;;;10106667;29;20510;-90
2022/08/23 14:27:06;;;;;;;2.47;1.40;;;;;;;;;;10103329;29;20854;-90
2022/08/23 14:32:10;;;;;;;3.85;1.27;;;;;;;;;;10110376;29;20413;-90
2022/08/23 14:37:11;;;;;;;2.50;1.23;;;;;;;;;;10112258;29;20508;-91
2022/08/23 14:42:19;;;;;;;2.20;1.00;;;;;;;;;;10107596;29;20449;-90
2022/08/23 14:47:22;;;;;;;1.63;1.15;;;;;;;;;;10109480;29;20544;-90
2022/08/23 14:52:24;;;;;;;1.60;1.50;;;;;;;;;;10113510;29;20449;-90
2022/08/23 14:57:26;;;;;;;2.38;1.80;;;;;;;;;;10106571;29;20526;-90
2022/08/23 15:02:29;;;;;;;4.05;1.60;;;;;;;;;;10108845;29;20970;-90
2022/08/23 15:07:31;;;;;;;3.22;1.30;;;;;;;;;;10121666;29;20441;-90
2022/08/23 15:12:33;;;;;;;1.70;1.43;;;;;;;;;;10105106;29;20989;-89
2022/08/23 15:17:38;;;;;;;1.75;1.17;;;;;;;;;;10112957;29;20419;-90
2022/08/23 15:22:40;;;;;;;2.15;1.20;;;;;;;;;;10116597;29;20530;-90
2022/08/23 15:27:43;;;;;;;3.63;1.30;;;;;;;;;;10112998;29;21004;-90
2022/08/23 15:32:46;;;;;;;4.82;1.20;;;;;;;;;;10115186;29;20452;-90
2022/08/23 15:37:48;;;;;;;2.80;1.10;;;;;;;;;;10115862;29;20499;-91
2022/08/23 15:42:50;;;;;;;2.53;1.20;;;;;;;;;;10111809;29;20822;-90
2022/08/23 15:47:57;;;;;;;1.67;1.10;;;;;;;;;;10118203;29;20536;-90
2022/08/23 15:52:59;;;;;;;2.30;1.10;;;;;;;;;;10115372;29;20422;-91
2022/08/23 15:58:01;;;;;;;2.40;1.10;;;;;;;;;;10112721;29;20457;-90
2022/08/23 16:03:05;;;;;;;2.47;1.23;;;;;;;;;;10111297;29;20472;-91
2022/08/23 16:08:08;;;;;;;1.70;1.05;;;;;;;;;;10114863;29;20945;-90
2022/08/23 16:13:10;;;;;;;2.30;1.00;;;;;;;;;;10111258;29;20427;-90
2022/08/23 16:18:13;;;;;;;3.07;1.10;;;;;;;;;;10114771;29;20440;-90
2022/08/23 16:23:15;;;;;;;1.10;1.00;;;;;;;;;;10111712;29;20425;-90
2022/08/23 16:28:16;;;;;;;2.63;1.10;;;;;;;;;;10110975;29;20634;-90
2022/08/23 16:33:20;;;;;;;3.07;1.10;;;;;;;;;;10114806;29;20957;-90
2022/08/23 16:38:21;;;;;;;4.05;1.00;;;;;;;;;;10113626;29;20525;-90
2022/08/23 16:43:23;;;;;;;3.20;1.40;;;;;;;;;;10110423;29;20512;-90
2022/08/23 16:48:27;;;;;;;1.07;0.93;;;;;;;;;;10116529;29;20528;-90
2022/08/23 16:53:29;;;;;;;2.20;1.17;;;;;;;;;;10114012;29;20514;-89
2022/08/23 16:58:31;;;;;;;2.08;1.15;;;;;;;;;;10108570;29;20460;-90
2022/08/23 17:03:34;;;;;;;2.45;1.00;;;;;;;;;;10113225;29;20429;-90
2022/08/23 17:08:36;;;;;;;1.20;0.90;;;;;;;;;;10109949;29;20452;-90
2022/08/23 17:13:38;;;;;;;1.40;0.90;;;;;;;;;;10109733;29;20513;-90
2022/08/23 17:18:44;;;;;;;2.65;0.98;;;;;;;;;;10115084;29;20923;-90
2022/08/23 17:23:46;;;;;;;1.60;0.90;;;;;;;;;;10110196;29;20490;-90
2022/08/23 17:28:48;;;;;;;2.43;1.10;;;;;;;;;;10110858;29;20470;-90
2022/08/23 17:33:51;;;;;;;1.63;1.20;;;;;;;;;;10111711;29;20498;-90
2022/08/23 17:38:55;;;;;;;1.30;0.90;;;;;;;;;;10115031;29;20459;-90
2022/08/23 17:43:57;;;;;;;2.23;0.93;;;;;;;;;;10105545;29;20467;-90
2022/08/23 17:49:00;;;;;;;2.53;1.00;;;;;;;;;;10111538;29;20434;-89
2022/08/23 17:54:02;;;;;;;1.02;0.93;;;;;;;;;;10107715;29;20930;-89
2022/08/23 17:59:05;;;;;;;1.58;1.00;;;;;;;;;;10108114;29;20519;-89
2022/08/23 18:04:08;;;;;;;2.78;1.10;;;;;;;;;;10107168;29;20938;-90
2022/08/23 18:09:10;;;;;;;2.47;1.10;;;;;;;;;;10111386;29;20523;-89
2022/08/23 18:14:12;;;;;;;2.77;1.30;;;;;;;;;;10106667;29;20989;-89
2022/08/23 18:19:16;;;;;;;1.70;1.30;;;;;;;;;;10112389;29;20434;-89
2022/08/23 18:24:18;;;;;;;1.73;1.33;;;;;;;;;;10111572;29;20453;-89
2022/08/23 18:29:20;;;;;;;1.63;1.30;;;;;;;;;;10107513;29;20491;-89
2022/08/23 18:34:24;;;;;;;1.70;1.20;;;;;;;;;;10132111;29;20464;-89
2022/08/23 18:39:26;;;;;;;3.25;1.40;;;;;;;;;;10146089;29;20470;-90
2022/08/23 18:44:28;;;;;;;1.60;1.40;;;;;;;;;;10106853;29;20449;-90
2022/08/23 18:49:33;;;;;;;2.65;1.10;;;;;;;;;;10109312;29;20433;-90
2022/08/23 18:54:36;;;;;;;2.70;1.35;;;;;;;;;;10105060;29;20421;-89
2022/08/23 18:59:38;;;;;;;2.28;1.40;;;;;;;;;;10100498;29;20525;-90
2022/08/23 19:04:42;;;;;;;1.30;1.20;;;;;;;;;;10109696;29;20415;-90
2022/08/23 19:09:43;;;;;;;2.67;1.70;;;;;;;;;;10112473;29;20474;-90
2022/08/23 19:14:45;;;;;;;1.77;1.67;;;;;;;;;;10103850;29;20462;-89
2022/08/23 19:19:49;;;;;;;2.50;1.52;;;;;;;;;;10111974;29;20503;-89
2022/08/23 19:24:51;;;;;;;2.40;1.90;;;;;;;;;;10109275;29;20417;-89
2022/08/23 19:29:54;;;;;;;2.03;1.50;;;;;;;;;;10102112;29;20516;-90
2022/08/23 19:34:57;;;;;;;2.40;1.45;;;;;;;;;;10109306;29;20920;-90
2022/08/23 19:39:59;;;;;;;3.20;1.80;;;;;;;;;;10109424;29;20414;-89
2022/08/23 19:45:01;;;;;;;2.53;1.63;;;;;;;;;;10100500;29;20426;-89
2022/08/23 19:50:05;;;;;;;2.90;1.50;;;;;;;;;;10108734;29;20438;-89
2022/08/23 19:55:08;;;;;;;1.70;1.60;;;;;;;;;;10112198;29;20421;-90
2022/08/23 20:00:13;;;;;;;3.53;1.70;;;;;;;;;;10111762;29;20427;-89
2022/08/23 20:05:19;;;;;;;1.55;1.42;;;;;;;;;;10116084;29;20819;-90
2022/08/23 20:10:22;;;;;;;3.90;1.60;;;;;;;;;;10117578;29;20471;-90
2022/08/23 20:15:23;;;;;;;1.63;1.52;;;;;;;;;;10108225;29;20457;-89
2022/08/23 20:20:27;;;;;;;3.03;2.00;;;;;;;;;;10115682;29;20998;-90
2022/08/23 20:25:29;;;;;;;2.20;1.77;;;;;;;;;;10118693;29;20955;-90
2022/08/23 20:30:31;;;;;;;2.65;2.10;;;;;;;;;;10113606;29;20548;-90
2022/08/23 20:35:34;;;;;;;3.08;1.80;;;;;;;;;;10107675;29;20613;-90
2022/08/23 20:40:36;;;;;;;2.60;1.70;;;;;;;;;;10110993;29;20534;-90
2022/08/23 20:45:38;;;;;;;2.90;1.73;;;;;;;;;;10113282;29;20505;-89
2022/08/23 20:50:41;;;;;;;2.30;1.67;;;;;;;;;;10117138;29;21004;-89
2022/08/23 20:55:43;;;;;;;5.32;2.20;;;;;;;;;;10110000;29;20468;-90
2022/08/23 21:00:45;;;;;;;2.83;1.90;;;;;;;;;;10112251;29;20505;-90
2022/08/23 21:05:49;;;;;;;2.33;1.90;;;;;;;;;;10112562;29;20483;-90
2022/08/23 21:10:51;;;;;;;4.15;2.10;;;;;;;;;;10115355;29;20452;-89
2022/08/23 21:15:53;;;;;;;2.38;2.08;;;;;;;;;;10112389;29;20515;-89
2022/08/23 21:20:57;;;;;;;3.10;2.10;;;;;;;;;;10112404;29;20415;-90
2022/08/23 21:25:59;;;;;;;2.45;2.00;;;;;;;;;;10109281;29;20829;-89
2022/08/23 21:31:05;;;;;;;3.10;2.20;;;;;;;;;;10111529;29;20462;-89
2022/08/23 21:36:09;;;;;;;3.72;2.30;;;;;;;;;;10109226;29;20910;-89
2022/08/23 21:41:26;;;;;;;2.92;2.10;;;;;;;;;;10107746;29;20449;-89
2022/08/23 21:46:28;;;;;;;2.50;1.98;;;;;;;;;;10110531;29;20518;-89
2022/08/23 21:51:31;;;;;;;2.85;2.22;;;;;;;;;;10111409;29;20525;-90
2022/08/23 21:56:33;;;;;;;2.20;2.00;;;;;;;;;;10113892;29;20712;-90
2022/08/23 22:01:36;;;;;;;2.53;2.27;;;;;;;;;;10112210;29;20502;-90
2022/08/23 22:06:40;;;;;;;3.45;2.28;;;;;;;;;;10109152;29;20427;-90
2022/08/23 22:11:43;;;;;;;5.03;2.50;;;;;;;;;;10110069;29;20490;-89
2022/08/23 22:16:45;;;;;;;5.25;3.50;;;;;;;;;;10110425;29;20513;-89
2022/08/23 22:21:50;;;;;;;4.80;3.70;;;;;;;;;;10111297;29;20982;-90
2022/08/23 22:26:52;;;;;;;5.15;4.47;;;;;;;;;;10109667;29;20468;-89
2022/08/23 22:31:54;;;;;;;5.75;4.70;;;;;;;;;;10116403;29;20508;-90
2022/08/23 22:36:58;;;;;;;5.90;4.55;;;;;;;;;;10109595;29;20437;-90
2022/08/23 22:42:00;;;;;;;5.68;4.70;;;;;;;;;;10110245;29;20453;-90
2022/08/23 22:47:01;;;;;;;5.10;4.40;;;;;;;;;;10111785;29;20831;-89
2022/08/23 22:52:05;;;;;;;5.22;4.68;;;;;;;;;;10106884;29;20980;-90
2022/08/23 22:57:07;;;;;;;5.57;4.87;;;;;;;;;;10105020;29;20847;-90
2022/08/23 23:02:09;;;;;;;5.00;4.50;;;;;;;;;;10106322;29;20443;-90
2022/08/23 23:07:12;;;;;;;5.50;4.40;;;;;;;;;;10109886;29;20471;-89
2022/08/23 23:12:14;;;;;;;7.20;5.18;;;;;;;;;;10132211;29;20416;-90
2022/08/23 23:17:16;;;;;;;7.82;5.80;;;;;;;;;;10109258;29;20456;-89
2022/08/23 23:22:19;;;;;;;6.97;6.37;;;;;;;;;;10110347;29;20421;-90
2022/08/23 23:27:21;;;;;;;8.20;6.75;;;;;;;;;;10111473;29;20473;-89
2022/08/23 23:32:23;;;;;;;9.02;6.85;;;;;;;;;;10119675;29;20502;-90
2022/08/23 23:37:26;;;;;;;8.18;7.15;;;;;;;;;;10117014;29;20512;-90
2022/08/23 23:42:28;;;;;;;8.45;6.88;;;;;;;;;;10114370;29;20491;-89
2022/08/23 23:47:30;;;;;;;7.30;6.68;;;;;;;;;;10116400;29;20438;-90
2022/08/23 23:52:33;;;;;;;7.68;6.70;;;;;;;;;;10115448;29;20482;-89
2022/08/23 23:57:35;;;;;;;7.07;6.38;;;;;;;;;;10113410;29;20425;-90
